EHGR

Gilze Rijen Air Base Airport

Breda, The Netherlands
METAR EHGR 212155Z AUTO 28006KT 9999 NCD 09/05 Q1026 BLU
Observed Flight Rules
Jun-21 @ 21:55 UTC (8 minutes ago) Visual Flight Rules
Wind Visibility Clouds
280° at 6 knots 10,000+ meters
  • Clear skies
Temperatures Readings
Current 9°C / 48°F
Dewpoint 5°C / 41°F
Humidity 76%
Altimeter 30.3" Hg
Pressure 1026 hPa
Elevation 13
METAR EHGR 212155Z AUTO 28006KT 9999 NCD 09/05 Q1026 BLU
Observed Flight Rules
Jun-21 @ 21:55 UTC
(8 minutes ago)
VFR
Wind Visibility
280° at 6 knots 10,000+ meters
Clouds
  • Clear skies
Temperature Dewpoint
9°C / 48°F 5°C / 41°F
Humidity Altimeter Pressure
76% 30.3" Hg 1026 hPa